createdAt,value
2017-08-18T00:01:22.592Z,69.02
2017-08-18T00:03:49.868Z,69.02
2017-08-18T00:06:17.034Z,69.00
2017-08-18T00:08:44.201Z,68.99
2017-08-18T00:11:11.620Z,68.97
2017-08-18T00:13:38.789Z,69.00
2017-08-18T00:16:05.979Z,68.96
2017-08-18T00:18:33.386Z,68.97
2017-08-18T00:21:01.032Z,69.00
2017-08-18T00:23:28.293Z,68.99
2017-08-18T00:25:55.758Z,68.99
2017-08-18T00:28:23.238Z,69.00
2017-08-18T00:30:50.668Z,69.00
2017-08-18T00:33:18.318Z,69.01
2017-08-18T00:35:45.586Z,69.02
2017-08-18T00:38:12.768Z,69.03
2017-08-18T00:40:40.195Z,69.29
2017-08-18T00:43:07.366Z,68.75
2017-08-18T00:45:34.551Z,67.47
2017-08-18T00:48:01.720Z,66.59
2017-08-18T00:50:29.214Z,65.83
2017-08-18T00:52:56.758Z,65.42
2017-08-18T00:55:23.937Z,64.80
2017-08-18T00:57:51.166Z,65.79
2017-08-18T01:00:18.617Z,66.46
2017-08-18T01:02:45.784Z,66.62
2017-08-18T01:05:13.292Z,66.80
2017-08-18T01:07:40.472Z,66.97
2017-08-18T01:10:07.652Z,67.13
2017-08-18T01:12:35.196Z,67.25
2017-08-18T01:15:02.447Z,67.37
2017-08-18T01:17:29.609Z,67.47
2017-08-18T01:19:56.792Z,67.56
2017-08-18T01:22:24.285Z,67.65
2017-08-18T01:24:51.456Z,67.73
2017-08-18T01:27:18.793Z,67.80
2017-08-18T01:29:45.962Z,67.85
2017-08-18T01:32:13.140Z,67.92
2017-08-18T01:34:40.627Z,67.96
2017-08-18T01:37:08.023Z,68.02
2017-08-18T01:39:35.412Z,68.07
2017-08-18T01:42:02.623Z,68.11
2017-08-18T01:44:29.790Z,68.15
2017-08-18T01:46:56.965Z,68.18
2017-08-18T01:49:24.169Z,68.21
2017-08-18T01:51:51.533Z,68.25
2017-08-18T01:54:19.192Z,68.28
2017-08-18T01:56:46.508Z,68.31
2017-08-18T01:59:14.026Z,68.34
2017-08-18T02:01:41.189Z,68.36
2017-08-18T02:04:08.376Z,68.40
2017-08-18T02:06:35.659Z,68.44
2017-08-18T02:09:03.271Z,68.45
2017-08-18T02:11:30.446Z,68.47
2017-08-18T02:13:57.807Z,68.49
2017-08-18T02:16:25.044Z,68.54
2017-08-18T02:18:52.342Z,68.61
2017-08-18T02:21:19.789Z,68.64
2017-08-18T02:23:46.964Z,68.66
2017-08-18T02:26:14.398Z,68.68
2017-08-18T02:28:41.568Z,68.71
2017-08-18T02:31:09.011Z,68.72
2017-08-18T02:33:36.520Z,68.73
2017-08-18T02:36:03.915Z,68.76
2017-08-18T02:38:31.378Z,68.79
2017-08-18T02:40:58.559Z,68.82
2017-08-18T02:43:25.974Z,68.86
2017-08-18T02:45:53.440Z,68.91
2017-08-18T02:48:20.614Z,68.93
2017-08-18T02:50:48.044Z,68.96
2017-08-18T02:53:15.504Z,68.98
2017-08-18T02:55:42.960Z,68.99
2017-08-18T02:58:10.616Z,69.00
2017-08-18T03:00:38.191Z,69.03
2017-08-18T03:03:05.361Z,69.03
2017-08-18T03:05:32.521Z,69.08
2017-08-18T03:07:59.947Z,69.10
2017-08-18T03:10:27.120Z,69.12
2017-08-18T03:12:54.543Z,69.10
2017-08-18T03:15:21.726Z,69.11
2017-08-18T03:17:49.128Z,69.12
2017-08-18T03:20:17.057Z,69.12
2017-08-18T03:22:44.377Z,69.11
2017-08-18T03:25:11.908Z,69.10
2017-08-18T03:27:39.401Z,69.07
2017-08-18T03:30:06.749Z,69.04
2017-08-18T03:32:34.204Z,69.01
2017-08-18T03:35:01.855Z,68.97
2017-08-18T03:37:29.195Z,68.94
2017-08-18T03:39:56.397Z,68.92
2017-08-18T03:42:23.727Z,68.91
2017-08-18T03:44:51.185Z,68.91
2017-08-18T03:47:18.357Z,68.90
2017-08-18T03:49:45.857Z,68.92
2017-08-18T03:52:13.021Z,68.93
2017-08-18T03:54:40.713Z,68.94
2017-08-18T03:57:08.162Z,68.95
2017-08-18T03:59:35.343Z,68.95
2017-08-18T04:02:03.088Z,69.17
2017-08-18T04:04:30.736Z,68.46
2017-08-18T04:06:57.928Z,67.24
2017-08-18T04:09:25.101Z,66.22
2017-08-18T04:11:53.115Z,65.56
2017-08-18T04:14:20.299Z,64.88
2017-08-18T04:16:47.494Z,64.90
2017-08-18T04:19:15.285Z,66.02
2017-08-18T04:21:42.806Z,66.32
2017-08-18T04:24:09.977Z,66.55
2017-08-18T04:26:37.392Z,66.72
2017-08-18T04:29:05.008Z,66.90
2017-08-18T04:31:32.195Z,67.05
2017-08-18T04:33:59.362Z,67.21
2017-08-18T04:36:26.558Z,67.34
2017-08-18T04:38:53.761Z,67.44
2017-08-18T04:41:21.273Z,67.53
2017-08-18T04:43:48.433Z,67.62
2017-08-18T04:46:15.620Z,67.69
2017-08-18T04:48:42.811Z,67.77
2017-08-18T04:51:10.115Z,67.82
2017-08-18T04:53:37.609Z,67.88
2017-08-18T04:56:05.100Z,67.93
2017-08-18T04:58:32.568Z,67.99
2017-08-18T05:01:00.111Z,68.04
2017-08-18T05:03:27.292Z,68.08
2017-08-18T05:05:54.468Z,68.11
2017-08-18T05:08:22.580Z,68.15
2017-08-18T05:10:49.759Z,68.18
2017-08-18T05:13:16.948Z,68.21
2017-08-18T05:15:44.126Z,68.25
2017-08-18T05:18:11.555Z,68.28
2017-08-18T05:20:39.075Z,68.30
2017-08-18T05:23:06.405Z,68.33
2017-08-18T05:25:33.587Z,68.35
2017-08-18T05:28:01.012Z,68.38
2017-08-18T05:30:28.186Z,68.42
2017-08-18T05:32:55.364Z,68.42
2017-08-18T05:35:23.004Z,68.45
2017-08-18T05:37:50.172Z,68.48
2017-08-18T05:40:17.351Z,68.51
2017-08-18T05:42:45.290Z,68.54
2017-08-18T05:45:12.600Z,68.57
2017-08-18T05:47:39.765Z,68.62
2017-08-18T05:50:07.201Z,68.65
2017-08-18T05:52:34.381Z,68.67
2017-08-18T05:55:01.554Z,68.71
2017-08-18T05:57:28.956Z,68.75
2017-08-18T05:59:56.478Z,68.81
2017-08-18T06:02:23.659Z,68.84
2017-08-18T06:04:51.112Z,68.88
2017-08-18T06:07:18.278Z,68.93
2017-08-18T06:09:45.697Z,68.99
2017-08-18T06:12:12.899Z,69.01
2017-08-18T06:14:40.306Z,69.03
2017-08-18T06:17:07.493Z,69.03
2017-08-18T06:19:34.854Z,69.04
2017-08-18T06:22:02.307Z,69.03
2017-08-18T06:24:29.478Z,69.05
2017-08-18T06:26:57.094Z,69.06
2017-08-18T06:29:24.679Z,69.05
2017-08-18T06:31:52.139Z,69.03
2017-08-18T06:34:19.646Z,69.02
2017-08-18T06:36:46.832Z,69.00
2017-08-18T06:39:14.381Z,68.98
2017-08-18T06:41:41.662Z,68.94
2017-08-18T06:44:08.829Z,68.90
2017-08-18T06:46:36.260Z,68.86
2017-08-18T06:49:03.440Z,68.84
2017-08-18T06:51:30.941Z,68.82
2017-08-18T06:53:58.435Z,68.82
2017-08-18T06:56:25.903Z,68.83
2017-08-18T06:58:53.445Z,68.83
2017-08-18T07:01:20.609Z,68.83
2017-08-18T07:03:48.029Z,68.83
2017-08-18T07:06:15.615Z,68.84
2017-08-18T07:08:43.065Z,68.84
2017-08-18T07:11:10.246Z,68.85
2017-08-18T07:13:37.412Z,68.85
2017-08-18T07:16:04.585Z,68.86
2017-08-18T07:18:32.160Z,68.87
2017-08-18T07:20:59.626Z,68.87
2017-08-18T07:23:26.889Z,69.04
2017-08-18T07:25:54.054Z,68.97
2017-08-18T07:28:21.233Z,67.95
2017-08-18T07:30:48.643Z,67.03
2017-08-18T07:33:16.288Z,66.42
2017-08-18T07:35:44.130Z,65.89
2017-08-18T07:38:12.024Z,65.45
2017-08-18T07:40:39.393Z,64.95
2017-08-18T07:43:06.856Z,65.58
2017-08-18T07:45:34.041Z,66.40
2017-08-18T07:48:01.223Z,66.69
2017-08-18T07:50:28.614Z,66.91
2017-08-18T07:52:56.086Z,67.43
2017-08-18T07:55:23.345Z,68.27
2017-08-18T07:57:52.819Z,68.46
2017-08-18T08:00:22.388Z,68.52
2017-08-18T08:02:52.193Z,68.59
2017-08-18T08:05:22.329Z,68.67
2017-08-18T08:07:53.723Z,68.69
2017-08-18T08:10:24.175Z,68.71
2017-08-18T08:12:54.180Z,68.70
2017-08-18T08:15:25.413Z,68.73
2017-08-18T08:17:54.724Z,68.73
2017-08-18T08:20:24.362Z,69.16
2017-08-18T08:22:54.158Z,69.82
2017-08-18T08:25:24.863Z,70.30
2017-08-18T08:27:54.407Z,71.54
2017-08-18T08:30:25.402Z,71.30
2017-08-18T08:32:55.855Z,71.13
2017-08-18T08:35:25.286Z,71.39
2017-08-18T08:37:55.038Z,71.55
2017-08-18T08:40:25.515Z,71.62
2017-08-18T08:42:55.167Z,71.63
2017-08-18T08:45:24.974Z,71.61
2017-08-18T08:47:56.624Z,71.68
2017-08-18T08:50:27.495Z,71.65
2017-08-18T08:52:57.345Z,71.50
2017-08-18T08:55:25.813Z,71.40
2017-08-18T08:57:53.017Z,71.20
2017-08-18T09:00:20.616Z,71.02
2017-08-18T09:02:47.835Z,70.91
2017-08-18T09:05:15.848Z,70.83
2017-08-18T09:07:43.058Z,70.75
2017-08-18T09:10:10.711Z,70.69
2017-08-18T09:12:38.153Z,70.65
2017-08-18T09:15:05.751Z,70.63
2017-08-18T09:17:33.388Z,70.61
2017-08-18T09:20:00.568Z,70.59
2017-08-18T09:22:27.813Z,70.56
2017-08-18T09:24:54.982Z,70.56
2017-08-18T09:27:22.157Z,70.54
2017-08-18T09:29:49.883Z,70.50
2017-08-18T09:32:17.052Z,70.49
2017-08-18T09:34:44.236Z,70.46
2017-08-18T09:37:12.628Z,70.44
2017-08-18T09:39:40.013Z,70.41
2017-08-18T09:42:07.661Z,70.39
2017-08-18T09:44:34.902Z,70.35
2017-08-18T09:47:02.841Z,70.32
2017-08-18T09:49:30.018Z,70.30
2017-08-18T09:51:57.186Z,70.29
2017-08-18T09:54:25.031Z,70.26
2017-08-18T09:56:52.466Z,70.25
2017-08-18T09:59:19.735Z,70.29
2017-08-18T10:01:46.906Z,70.30
2017-08-18T10:04:14.276Z,70.28
2017-08-18T10:06:41.732Z,70.24
2017-08-18T10:09:09.267Z,70.21
2017-08-18T10:11:36.653Z,70.19
2017-08-18T10:14:03.825Z,70.17
2017-08-18T10:16:31.317Z,70.14
2017-08-18T10:18:58.717Z,70.13
2017-08-18T10:21:26.477Z,70.11
2017-08-18T10:23:54.029Z,70.65
2017-08-18T10:26:21.248Z,70.75
2017-08-18T10:28:49.190Z,70.70
2017-08-18T10:31:16.389Z,71.06
2017-08-18T10:33:43.771Z,70.99
2017-08-18T10:36:11.220Z,70.20
2017-08-18T10:38:38.988Z,68.97
2017-08-18T10:41:06.503Z,67.96
2017-08-18T10:43:34.021Z,67.37
2017-08-18T10:46:01.613Z,66.63
2017-08-18T10:48:29.951Z,66.21
2017-08-18T10:50:57.421Z,65.87
2017-08-18T10:53:25.090Z,65.31
2017-08-18T10:55:52.418Z,64.75
2017-08-18T10:58:19.950Z,65.32
2017-08-18T11:00:47.135Z,66.12
2017-08-18T11:03:14.385Z,66.48
2017-08-18T11:05:41.552Z,66.76
2017-08-18T11:08:08.760Z,66.98
2017-08-18T11:10:35.943Z,67.15
2017-08-18T11:13:04.560Z,67.35
2017-08-18T11:15:31.777Z,67.52
2017-08-18T11:17:58.949Z,67.65
2017-08-18T11:20:26.121Z,67.79
2017-08-18T11:22:53.311Z,67.90
2017-08-18T11:25:20.486Z,67.99
2017-08-18T11:27:47.657Z,68.09
2017-08-18T11:30:14.976Z,68.16
2017-08-18T11:32:42.966Z,68.24
2017-08-18T11:35:10.170Z,68.30
2017-08-18T11:37:38.257Z,68.36
2017-08-18T11:40:05.426Z,68.43
2017-08-18T11:42:33.188Z,68.47
2017-08-18T11:45:00.637Z,68.52
2017-08-18T11:47:28.096Z,68.56
2017-08-18T11:49:55.739Z,68.61
2017-08-18T11:52:23.002Z,68.64
2017-08-18T11:54:50.198Z,68.66
2017-08-18T11:57:17.618Z,68.70
2017-08-18T11:59:45.066Z,68.73
2017-08-18T12:02:12.530Z,68.77
2017-08-18T12:04:39.990Z,68.81
2017-08-18T12:07:07.635Z,68.83
2017-08-18T12:09:35.217Z,68.82
2017-08-18T12:12:02.407Z,68.86
2017-08-18T12:14:29.888Z,68.87
2017-08-18T12:16:57.131Z,68.88
2017-08-18T12:19:25.593Z,68.90
2017-08-18T12:21:53.014Z,68.93
2017-08-18T12:24:20.606Z,68.93
2017-08-18T12:26:48.337Z,68.94
2017-08-18T12:29:16.104Z,68.96
2017-08-18T12:31:43.300Z,68.99
2017-08-18T12:34:10.484Z,69.01
2017-08-18T12:36:37.672Z,69.02
2017-08-18T12:39:05.486Z,69.03
2017-08-18T12:41:32.978Z,69.05
2017-08-18T12:44:00.225Z,69.05
2017-08-18T12:46:27.862Z,69.06
2017-08-18T12:48:55.454Z,69.08
2017-08-18T12:51:22.621Z,69.10
2017-08-18T12:53:49.797Z,69.11
2017-08-18T12:56:16.961Z,69.13
2017-08-18T12:58:44.474Z,69.15
2017-08-18T13:01:11.646Z,69.16
2017-08-18T13:03:38.810Z,69.18
2017-08-18T13:06:06.004Z,69.19
2017-08-18T13:08:33.183Z,69.20
2017-08-18T13:11:00.359Z,69.20
2017-08-18T13:13:27.560Z,69.19
2017-08-18T13:15:55.097Z,69.17
2017-08-18T13:18:22.265Z,69.18
2017-08-18T13:20:49.457Z,69.19
2017-08-18T13:23:16.777Z,69.18
2017-08-18T13:25:44.290Z,69.20
2017-08-18T13:28:11.469Z,69.21
2017-08-18T13:30:38.844Z,69.21
2017-08-18T13:33:06.494Z,69.21
2017-08-18T13:35:33.662Z,69.21
2017-08-18T13:38:00.830Z,69.22
2017-08-18T13:40:28.056Z,69.22
2017-08-18T13:42:55.250Z,69.23
2017-08-18T13:45:22.977Z,69.23
2017-08-18T13:47:50.172Z,69.23
2017-08-18T13:50:17.343Z,69.24
2017-08-18T13:52:44.731Z,69.25
2017-08-18T13:55:12.185Z,69.26
2017-08-18T13:57:39.717Z,69.27
2017-08-18T14:00:07.210Z,69.27
2017-08-18T14:02:34.556Z,69.29
2017-08-18T14:05:02.013Z,69.29
2017-08-18T14:07:29.537Z,69.52
2017-08-18T14:09:57.004Z,69.05
2017-08-18T14:12:24.398Z,67.84
2017-08-18T14:14:51.656Z,66.84
2017-08-18T14:17:19.180Z,66.12
2017-08-18T14:19:46.523Z,65.57
2017-08-18T14:22:14.017Z,65.09
2017-08-18T14:24:41.558Z,65.00
2017-08-18T14:27:14.657Z,65.99
2017-08-18T14:29:42.112Z,66.38
2017-08-18T14:32:09.759Z,66.59
2017-08-18T14:34:37.101Z,66.86
2017-08-18T14:37:04.484Z,67.03
2017-08-18T14:39:32.012Z,67.18
2017-08-18T14:41:59.208Z,67.33
2017-08-18T14:44:26.387Z,67.45
2017-08-18T14:46:53.704Z,67.55
2017-08-18T14:49:20.896Z,67.65
2017-08-18T14:51:48.247Z,67.75
2017-08-18T14:54:15.457Z,67.84
2017-08-18T14:56:42.922Z,67.91
2017-08-18T14:59:10.102Z,67.96
2017-08-18T15:01:37.592Z,68.02
2017-08-18T15:04:04.764Z,68.09
2017-08-18T15:06:32.128Z,68.14
2017-08-18T15:08:59.585Z,68.19
2017-08-18T15:11:27.114Z,68.25
2017-08-18T15:13:54.501Z,68.29
2017-08-18T15:16:22.147Z,68.32
2017-08-18T15:18:49.388Z,68.37
2017-08-18T15:21:17.332Z,68.40
2017-08-18T15:23:44.636Z,68.46
2017-08-18T15:26:11.814Z,68.48
2017-08-18T15:28:39.242Z,68.51
2017-08-18T15:31:08.482Z,68.55
2017-08-18T15:33:35.650Z,68.58
2017-08-18T15:36:02.832Z,68.60
2017-08-18T15:38:30.479Z,68.61
2017-08-18T15:40:58.076Z,68.62
2017-08-18T15:43:25.336Z,68.66
2017-08-18T15:45:53.318Z,68.67
2017-08-18T15:48:20.819Z,68.68
2017-08-18T15:50:48.474Z,68.72
2017-08-18T15:53:16.428Z,68.74
2017-08-18T15:55:43.825Z,68.76
2017-08-18T15:58:11.394Z,68.79
2017-08-18T16:00:38.665Z,68.83
2017-08-18T16:03:06.303Z,68.85
2017-08-18T16:05:33.562Z,68.88
2017-08-18T16:08:01.330Z,68.91
2017-08-18T16:10:29.276Z,68.94
2017-08-18T16:12:57.069Z,68.98
2017-08-18T16:15:24.320Z,69.02
2017-08-18T16:17:52.388Z,69.05
2017-08-18T16:20:19.814Z,69.09
2017-08-18T16:22:47.753Z,69.12
2017-08-18T16:25:15.062Z,69.15
2017-08-18T16:27:42.577Z,69.18
2017-08-18T16:30:10.220Z,69.19
2017-08-18T16:32:38.559Z,69.21
2017-08-18T16:35:06.004Z,69.22
2017-08-18T16:37:33.178Z,69.21
2017-08-18T16:40:00.371Z,69.20
2017-08-18T16:42:27.542Z,69.19
2017-08-18T16:44:56.036Z,69.18
2017-08-18T16:47:23.404Z,69.15
2017-08-18T16:49:51.804Z,69.13
2017-08-18T16:52:19.021Z,69.12
2017-08-18T16:54:46.705Z,69.11
2017-08-18T16:57:14.207Z,69.10
2017-08-18T16:59:41.614Z,69.09
2017-08-18T17:02:09.144Z,69.07
2017-08-18T17:04:36.332Z,69.07
2017-08-18T17:07:03.525Z,69.08
2017-08-18T17:09:30.896Z,69.08
2017-08-18T17:11:58.074Z,69.10
2017-08-18T17:14:25.503Z,69.11
2017-08-18T17:16:52.668Z,69.11
2017-08-18T17:19:20.040Z,69.12
2017-08-18T17:21:47.505Z,69.13
2017-08-18T17:24:15.154Z,69.13
2017-08-18T17:26:43.265Z,69.14
2017-08-18T17:29:11.236Z,69.16
2017-08-18T17:31:38.650Z,69.38
2017-08-18T17:34:06.194Z,68.62
2017-08-18T17:36:33.476Z,67.39
2017-08-18T17:39:00.828Z,66.51
2017-08-18T17:41:28.076Z,66.02
2017-08-18T17:43:55.754Z,65.27
2017-08-18T17:46:23.156Z,64.90
2017-08-18T17:48:50.321Z,65.25
2017-08-18T17:51:17.600Z,66.10
2017-08-18T17:53:45.049Z,66.46
2017-08-18T17:56:12.512Z,66.68
2017-08-18T17:58:39.710Z,66.91
2017-08-18T18:01:06.877Z,67.07
2017-08-18T18:03:34.270Z,67.20
2017-08-18T18:06:01.796Z,67.33
2017-08-18T18:08:29.312Z,67.44
2017-08-18T18:10:56.829Z,67.54
2017-08-18T18:13:24.014Z,67.63
2017-08-18T18:15:51.315Z,67.71
2017-08-18T18:18:18.807Z,67.79
2017-08-18T18:20:45.977Z,67.86
2017-08-18T18:23:13.392Z,67.92
2017-08-18T18:25:40.584Z,67.99
2017-08-18T18:28:07.930Z,68.04
2017-08-18T18:30:35.293Z,68.10
2017-08-18T18:33:02.585Z,68.14
2017-08-18T18:35:30.106Z,68.19
2017-08-18T18:37:57.454Z,68.23
2017-08-18T18:40:24.986Z,68.28
2017-08-18T18:42:52.358Z,68.32
2017-08-18T18:45:19.818Z,68.35
2017-08-18T18:47:46.990Z,68.37
2017-08-18T18:50:14.736Z,68.40
2017-08-18T18:52:41.948Z,68.44
2017-08-18T18:55:09.444Z,68.47
2017-08-18T18:57:36.984Z,68.50
2017-08-18T19:00:04.226Z,68.53
2017-08-18T19:02:31.771Z,68.55
2017-08-18T19:04:59.363Z,68.58
2017-08-18T19:07:26.624Z,68.60
2017-08-18T19:09:54.193Z,68.64
2017-08-18T19:12:21.541Z,68.67
2017-08-18T19:14:48.932Z,68.70
2017-08-18T19:17:16.150Z,68.75
2017-08-18T19:19:43.664Z,68.77
2017-08-18T19:22:11.182Z,68.78
2017-08-18T19:24:38.602Z,68.81
2017-08-18T19:27:05.972Z,68.87
2017-08-18T19:29:33.432Z,68.94
2017-08-18T19:32:00.881Z,69.01
2017-08-18T19:34:28.075Z,69.08
2017-08-18T19:36:55.250Z,69.14
2017-08-18T19:39:22.658Z,69.17
2017-08-18T19:41:50.301Z,69.18
2017-08-18T19:44:17.491Z,69.20
2017-08-18T19:46:44.672Z,69.23
2017-08-18T19:49:12.788Z,69.25
2017-08-18T19:51:41.492Z,69.25
2017-08-18T19:54:08.760Z,69.24
2017-08-18T19:56:36.185Z,69.22
2017-08-18T19:59:03.373Z,69.21
2017-08-18T20:01:30.559Z,69.20
2017-08-18T20:03:57.758Z,69.19
2017-08-18T20:06:24.966Z,69.18
2017-08-18T20:08:52.152Z,69.15
2017-08-18T20:11:19.336Z,69.15
2017-08-18T20:13:46.528Z,69.15
2017-08-18T20:16:13.709Z,69.14
2017-08-18T20:18:40.892Z,69.14
2017-08-18T20:21:08.088Z,69.15
2017-08-18T20:23:35.295Z,69.15
2017-08-18T20:26:02.480Z,69.15
2017-08-18T20:28:29.655Z,69.16
2017-08-18T20:30:56.849Z,69.15
2017-08-18T20:33:24.103Z,69.15
2017-08-18T20:35:51.293Z,69.20
2017-08-18T20:38:18.506Z,69.32
2017-08-18T20:40:45.678Z,69.34
2017-08-18T20:43:12.878Z,69.37
2017-08-18T20:45:40.060Z,69.38
2017-08-18T20:48:07.240Z,69.40
2017-08-18T20:50:34.441Z,69.42
2017-08-18T20:53:01.646Z,69.48
2017-08-18T20:55:28.832Z,69.49
2017-08-18T20:57:56.016Z,69.50
2017-08-18T21:00:23.205Z,68.95
2017-08-18T21:02:50.405Z,68.74
2017-08-18T21:05:17.812Z,69.49
2017-08-18T21:07:44.996Z,70.03
2017-08-18T21:10:12.158Z,70.25
2017-08-18T21:12:39.574Z,70.00
2017-08-18T21:15:07.038Z,69.37
2017-08-18T21:17:34.209Z,68.25
2017-08-18T21:20:01.632Z,67.01
2017-08-18T21:22:29.284Z,66.36
2017-08-18T21:24:56.477Z,65.66
2017-08-18T21:27:24.323Z,65.20
2017-08-18T21:29:51.503Z,64.74
2017-08-18T21:32:19.104Z,65.79
2017-08-18T21:34:46.415Z,66.35
2017-08-18T21:37:13.590Z,66.60
2017-08-18T21:39:40.990Z,66.78
2017-08-18T21:42:08.185Z,66.96
2017-08-18T21:44:35.905Z,67.13
2017-08-18T21:47:03.670Z,67.28
2017-08-18T21:49:30.849Z,67.43
2017-08-18T21:51:58.335Z,67.54
2017-08-18T21:54:25.554Z,67.62
2017-08-18T21:56:53.003Z,67.70
2017-08-18T21:59:20.708Z,67.76
2017-08-18T22:01:48.187Z,67.84
2017-08-18T22:04:15.704Z,67.93
2017-08-18T22:06:43.169Z,67.99
2017-08-18T22:09:10.785Z,68.05
2017-08-18T22:11:38.232Z,68.11
2017-08-18T22:14:05.690Z,68.15
2017-08-18T22:16:33.154Z,68.21
2017-08-18T22:19:00.344Z,68.27
2017-08-18T22:21:27.764Z,68.31
2017-08-18T22:23:54.944Z,68.34
2017-08-18T22:26:22.561Z,68.38
2017-08-18T22:28:49.730Z,68.41
2017-08-18T22:31:16.911Z,68.46
2017-08-18T22:33:44.122Z,68.49
2017-08-18T22:36:13.412Z,68.51
2017-08-18T22:38:41.145Z,68.55
2017-08-18T22:41:09.876Z,68.59
2017-08-18T22:43:37.408Z,68.60
2017-08-18T22:46:04.787Z,68.62
2017-08-18T22:48:32.168Z,68.66
2017-08-18T22:50:59.399Z,68.67
2017-08-18T22:53:27.713Z,68.69
2017-08-18T22:55:55.692Z,68.72
2017-08-18T22:58:24.188Z,68.75
2017-08-18T23:00:52.503Z,68.77
2017-08-18T23:03:20.372Z,68.79
2017-08-18T23:05:47.568Z,68.80
2017-08-18T23:08:14.753Z,68.82
2017-08-18T23:10:42.121Z,68.84
2017-08-18T23:13:09.764Z,68.85
2017-08-18T23:15:36.930Z,68.87
2017-08-18T23:18:04.101Z,68.88
2017-08-18T23:20:31.492Z,68.89
2017-08-18T23:22:58.676Z,68.92
2017-08-18T23:25:26.677Z,68.94
2017-08-18T23:27:54.022Z,68.95
2017-08-18T23:30:21.208Z,68.97
2017-08-18T23:32:48.627Z,68.98
2017-08-18T23:35:16.087Z,69.00
2017-08-18T23:37:43.744Z,69.02
2017-08-18T23:40:11.309Z,69.04
2017-08-18T23:42:38.823Z,69.05
2017-08-18T23:45:06.449Z,69.06
2017-08-18T23:47:33.678Z,69.07
2017-08-18T23:50:01.134Z,69.08
2017-08-18T23:52:28.306Z,69.08
2017-08-18T23:54:55.493Z,69.09
2017-08-18T23:57:26.286Z,69.11
2017-08-18T23:59:53.726Z,69.12
